Taft, Iran
Current Conditions -  °F | °C
As of 12:00 PM on Sunday 21 Dec 2014 (Local Time) from OIYY Reporting Station
Broken Clouds Broken Clouds  
Wind Chill: 45°   Ceiling: 20000
Heat Index: 48°   Visibility: 5mi
Dew Point: 36°   Wind: 7mph
Humidity: 62%   Direction: 300°WNW
Pressure: 30"   Gusts: NA
Location:  31.73°N, 54.22°E
Report Text: OIYY 210800Z 30006KT 8000 FEW035 BKN200 09/02 Q1016
Loading
Personal Weather Stations






























Interactive Weather Map New forecast layout! Learn more

10-Day Weather Forecast

Advertisements
Track Severe Weather on mobile